Time;durP1;ratioP1;P1;durP2;ratioP2;P2;SDS_P1;SDS_P2;PMS_P1;PMS_P2;Temp;Humidity;BMP_temperature;BMP_pressure;BME280_temperature;BME280_humidity;BME280_pressure;Samples;Min_cycle;Max_cycle;Signal;HPM_P1;HPM_P2
2021/09/09 00:00:33;;;;;;;10.50;8.32;;;16.50;91.60;;;;;;5029630;28;20517;-66
2021/09/09 00:02:59;;;;;;;12.55;9.30;;;16.50;91.60;;;;;;5027816;28;20106;-67
2021/09/09 00:05:25;;;;;;;13.38;8.80;;;16.50;91.70;;;;;;5030170;28;20346;-66
2021/09/09 00:07:51;;;;;;;12.38;8.82;;;16.50;91.70;;;;;;5030096;28;20030;-66
2021/09/09 00:10:16;;;;;;;12.00;8.45;;;16.50;91.80;;;;;;5029726;28;20095;-66
2021/09/09 00:12:42;;;;;;;12.57;8.90;;;16.50;91.70;;;;;;5026536;28;20500;-67
2021/09/09 00:15:08;;;;;;;11.68;9.02;;;16.40;91.70;;;;;;5029880;28;20056;-67
2021/09/09 00:17:34;;;;;;;12.30;9.50;;;16.40;91.70;;;;;;5011370;28;20026;-66
2021/09/09 00:19:59;;;;;;;16.08;8.80;;;16.40;91.80;;;;;;5029682;28;20399;-66
2021/09/09 00:22:25;;;;;;;14.45;8.50;;;16.30;91.90;;;;;;5011755;28;20033;-66
2021/09/09 00:24:51;;;;;;;15.98;9.18;;;16.30;91.90;;;;;;5028587;28;20036;-66
2021/09/09 00:27:16;;;;;;;11.13;8.57;;;16.40;92.00;;;;;;5029405;28;20028;-67
2021/09/09 00:29:42;;;;;;;14.15;8.73;;;16.40;92.00;;;;;;5007483;28;20042;-66
2021/09/09 00:32:08;;;;;;;14.77;8.43;;;16.30;91.90;;;;;;5026710;28;20025;-66
2021/09/09 00:34:33;;;;;;;12.40;8.73;;;16.30;91.80;;;;;;5013627;28;20091;-66
2021/09/09 00:36:59;;;;;;;12.50;8.45;;;16.20;91.80;;;;;;5030901;28;20026;-66
2021/09/09 00:39:24;;;;;;;12.27;8.23;;;16.20;91.80;;;;;;5015448;28;20407;-66
2021/09/09 00:41:52;;;;;;;11.95;7.97;;;16.10;91.90;;;;;;5033380;28;20412;-66
2021/09/09 00:44:26;;;;;;;11.32;8.48;;;16.10;92.10;;;;;;5032479;28;20021;-66
2021/09/09 00:47:00;;;;;;;13.82;8.43;;;16.10;92.00;;;;;;5031958;28;20370;-66
2021/09/09 00:49:26;;;;;;;11.85;8.77;;;16.00;92.10;;;;;;5033816;28;20075;-66
2021/09/09 00:51:52;;;;;;;14.05;8.75;;;16.10;92.10;;;;;;5032535;28;20108;-66
2021/09/09 00:54:17;;;;;;;12.82;7.85;;;16.10;92.10;;;;;;5031945;28;20029;-66
2021/09/09 00:56:43;;;;;;;14.38;8.38;;;16.10;92.00;;;;;;5014444;28;20111;-66
2021/09/09 00:59:08;;;;;;;9.75;8.10;;;16.00;92.20;;;;;;5014967;28;20048;-67
2021/09/09 01:01:34;;;;;;;11.07;8.38;;;16.00;92.20;;;;;;5032158;28;20635;-66
2021/09/09 01:03:59;;;;;;;12.65;9.02;;;16.00;92.30;;;;;;5023037;28;20375;-66
2021/09/09 01:06:25;;;;;;;14.25;8.88;;;16.00;92.20;;;;;;5014796;28;20079;-66
2021/09/09 01:08:51;;;;;;;11.80;8.32;;;16.00;92.10;;;;;;5033196;28;20028;-66
2021/09/09 01:11:17;;;;;;;13.70;9.10;;;16.00;92.10;;;;;;5032743;28;20033;-66
2021/09/09 01:13:50;;;;;;;10.77;9.10;;;15.90;92.10;;;;;;5030500;28;20025;-66
2021/09/09 01:16:15;;;;;;;11.93;8.70;;;15.90;92.20;;;;;;5016410;28;20026;-66
2021/09/09 01:18:41;;;;;;;13.30;9.35;;;15.90;92.20;;;;;;5031179;28;20033;-66
2021/09/09 01:21:06;;;;;;;14.23;8.90;;;15.90;92.20;;;;;;5032666;28;20091;-66
2021/09/09 01:23:33;;;;;;;15.00;10.15;;;15.90;92.30;;;;;;5013638;28;20025;-66
2021/09/09 01:25:59;;;;;;;13.30;9.48;;;15.90;92.40;;;;;;5032912;28;20429;-66
2021/09/09 01:28:25;;;;;;;13.23;9.48;;;15.90;92.30;;;;;;5032064;28;20021;-66
2021/09/09 01:30:50;;;;;;;13.90;9.60;;;15.90;92.30;;;;;;5026161;28;20367;-66
2021/09/09 01:33:16;;;;;;;12.65;9.20;;;15.80;92.30;;;;;;5027959;28;20033;-66
2021/09/09 01:35:41;;;;;;;16.77;9.63;;;15.80;92.40;;;;;;5002860;28;20401;-66
2021/09/09 01:38:23;;;;;;;13.65;9.93;;;15.90;92.50;;;;;;5032464;28;20025;-66
2021/09/09 01:40:49;;;;;;;13.48;9.38;;;15.80;92.40;;;;;;5027094;28;20037;-66
2021/09/09 01:43:16;;;;;;;12.52;9.30;;;15.80;92.40;;;;;;5031098;28;20107;-66
2021/09/09 01:45:42;;;;;;;13.95;9.55;;;15.80;92.40;;;;;;5031332;28;20029;-66
2021/09/09 01:48:08;;;;;;;14.52;9.60;;;15.80;92.50;;;;;;5031939;28;20021;-66
2021/09/09 01:50:34;;;;;;;11.80;9.02;;;15.80;92.50;;;;;;5032376;28;20042;-66
2021/09/09 01:53:00;;;;;;;13.57;8.82;;;15.80;92.40;;;;;;5031406;28;20072;-66
2021/09/09 01:55:25;;;;;;;12.70;9.15;;;15.70;92.40;;;;;;5031653;28;20481;-66
2021/09/09 01:57:51;;;;;;;12.32;8.40;;;15.70;92.40;;;;;;5032146;28;20021;-67
2021/09/09 02:00:16;;;;;;;12.98;8.05;;;15.70;92.40;;;;;;5030571;28;20029;-66
2021/09/09 02:02:42;;;;;;;12.70;9.18;;;15.60;92.50;;;;;;5030741;28;20029;-66
2021/09/09 02:05:09;;;;;;;11.80;9.43;;;15.60;92.50;;;;;;5016204;28;20199;-66
2021/09/09 02:07:35;;;;;;;16.10;9.35;;;15.60;92.50;;;;;;5022699;28;20028;-66
2021/09/09 02:10:00;;;;;;;11.73;9.30;;;15.50;92.60;;;;;;5032085;28;20481;-66
2021/09/09 02:12:26;;;;;;;14.65;9.95;;;15.50;92.70;;;;;;5043029;22;20524;-64
2021/09/09 02:14:52;;;;;;;15.98;9.93;;;15.50;92.70;;;;;;5030021;28;20030;-64
2021/09/09 02:17:17;;;;;;;12.88;8.70;;;15.40;92.70;;;;;;5032252;28;20071;-64
2021/09/09 02:19:43;;;;;;;13.40;9.20;;;15.40;92.80;;;;;;5030668;28;20025;-64
2021/09/09 02:22:08;;;;;;;13.15;9.45;;;15.50;92.80;;;;;;5031953;28;20021;-64
2021/09/09 02:24:34;;;;;;;13.52;9.18;;;15.50;92.80;;;;;;5030596;28;20468;-65
2021/09/09 02:26:59;;;;;;;12.65;9.05;;;15.50;92.70;;;;;;5031666;28;20404;-64
2021/09/09 02:29:25;;;;;;;12.90;9.20;;;15.60;92.80;;;;;;5030641;28;20038;-64
2021/09/09 02:31:51;;;;;;;13.43;9.55;;;15.50;92.70;;;;;;5018282;28;20030;-65
2021/09/09 02:34:16;;;;;;;13.57;9.00;;;15.50;92.70;;;;;;5017482;28;20465;-64
2021/09/09 02:36:42;;;;;;;12.45;9.45;;;15.50;92.80;;;;;;5017450;28;20064;-65
2021/09/09 02:39:07;;;;;;;13.88;9.40;;;15.50;92.80;;;;;;5019279;28;20036;-65
2021/09/09 02:41:33;;;;;;;11.55;8.95;;;15.40;92.80;;;;;;5016803;28;20052;-64
2021/09/09 02:43:58;;;;;;;11.25;8.90;;;15.40;92.80;;;;;;5024293;28;20098;-64
2021/09/09 02:46:24;;;;;;;11.05;8.18;;;15.40;92.90;;;;;;5030738;28;20018;-63
2021/09/09 02:48:49;;;;;;;10.90;8.75;;;15.40;92.90;;;;;;5030580;28;20040;-64
2021/09/09 02:51:15;;;;;;;11.88;8.23;;;15.40;92.90;;;;;;5031200;28;20025;-65
2021/09/09 02:53:41;;;;;;;11.77;8.77;;;15.30;92.80;;;;;;5029947;28;20101;-64
2021/09/09 02:56:06;;;;;;;11.32;8.07;;;15.20;92.80;;;;;;5030086;28;20114;-64
2021/09/09 02:58:32;;;;;;;11.93;8.45;;;15.30;93.00;;;;;;5030027;28;20030;-65
2021/09/09 03:00:57;;;;;;;11.23;9.00;;;15.30;93.00;;;;;;5029817;28;20098;-65
2021/09/09 03:03:23;;;;;;;11.93;8.43;;;15.30;92.90;;;;;;5029686;28;20104;-65
2021/09/09 03:05:48;;;;;;;15.20;8.90;;;15.20;92.90;;;;;;5030707;28;20033;-64
2021/09/09 03:08:14;;;;;;;11.23;8.35;;;15.20;92.90;;;;;;5030252;28;20092;-64
2021/09/09 03:10:40;;;;;;;11.43;8.20;;;15.20;92.90;;;;;;5030273;28;20083;-65
2021/09/09 03:13:05;;;;;;;12.02;7.95;;;15.10;92.90;;;;;;5017796;28;20049;-65
2021/09/09 03:15:31;;;;;;;11.43;8.13;;;15.10;93.20;;;;;;5026230;28;20091;-65
2021/09/09 03:17:56;;;;;;;10.93;8.65;;;15.10;93.00;;;;;;5030295;28;20040;-65
2021/09/09 03:20:22;;;;;;;11.88;8.82;;;15.10;93.00;;;;;;5029253;28;20484;-65
2021/09/09 03:22:48;;;;;;;11.35;9.05;;;15.10;93.00;;;;;;5029950;28;20038;-65
2021/09/09 03:25:13;;;;;;;11.70;8.18;;;15.10;93.00;;;;;;5030194;28;20052;-65
2021/09/09 03:27:39;;;;;;;11.68;7.80;;;15.10;93.00;;;;;;5030169;28;20026;-64
2021/09/09 03:30:06;;;;;;;13.40;8.50;;;15.10;93.00;;;;;;5010741;28;20171;-65
2021/09/09 03:32:31;;;;;;;13.50;8.70;;;15.10;93.00;;;;;;5001141;28;20060;-65
2021/09/09 03:34:57;;;;;;;12.93;9.02;;;15.00;93.00;;;;;;5028781;28;20057;-65
2021/09/09 03:37:22;;;;;;;12.02;8.07;;;15.10;93.10;;;;;;5025906;28;20040;-65
2021/09/09 03:39:48;;;;;;;14.40;8.82;;;15.10;93.20;;;;;;5029206;28;20469;-64
2021/09/09 03:42:14;;;;;;;12.65;8.18;;;15.10;93.10;;;;;;5026785;28;20037;-65
2021/09/09 03:44:39;;;;;;;12.68;8.32;;;15.10;93.10;;;;;;5027296;28;20026;-65
2021/09/09 03:47:05;;;;;;;10.88;8.45;;;15.10;93.20;;;;;;5030164;28;20128;-65
2021/09/09 03:49:30;;;;;;;12.32;8.57;;;15.10;93.30;;;;;;5029779;28;20025;-65
2021/09/09 03:51:56;;;;;;;13.55;8.95;;;15.10;93.20;;;;;;5029513;28;20029;-65
2021/09/09 03:54:22;;;;;;;12.43;9.43;;;15.20;93.20;;;;;;5029141;28;20025;-65
2021/09/09 03:56:48;;;;;;;17.10;9.70;;;15.10;93.20;;;;;;5029328;28;20037;-65
2021/09/09 03:59:14;;;;;;;11.73;8.50;;;15.10;93.20;;;;;;5029438;28;20568;-65
2021/09/09 04:01:39;;;;;;;13.70;8.77;;;15.10;93.20;;;;;;5028700;28;20116;-65
2021/09/09 04:04:05;;;;;;;14.00;9.07;;;15.10;93.30;;;;;;5028768;28;20485;-65
2021/09/09 04:06:30;;;;;;;13.15;9.70;;;15.10;93.30;;;;;;5030087;28;20361;-65
2021/09/09 04:08:56;;;;;;;13.20;9.70;;;15.10;93.20;;;;;;5029281;28;20079;-66
2021/09/09 04:11:22;;;;;;;13.50;9.13;;;15.10;93.20;;;;;;5028770;28;20079;-65
2021/09/09 04:13:47;;;;;;;11.98;9.20;;;15.10;93.30;;;;;;5011755;28;20033;-66
2021/09/09 04:16:13;;;;;;;12.13;8.60;;;15.00;93.30;;;;;;5029750;28;20032;-66
2021/09/09 04:18:38;;;;;;;11.57;9.18;;;15.00;93.30;;;;;;5030238;28;20040;-65
2021/09/09 04:21:04;;;;;;;12.38;8.70;;;15.00;93.30;;;;;;5029759;28;20049;-66
2021/09/09 04:23:30;;;;;;;13.70;9.23;;;14.90;93.30;;;;;;5028544;28;20029;-66
2021/09/09 04:25:55;;;;;;;12.63;9.18;;;14.90;93.30;;;;;;5029000;28;20068;-66
2021/09/09 04:28:21;;;;;;;10.60;8.45;;;14.90;93.40;;;;;;5029495;28;20025;-67
2021/09/09 04:30:48;;;;;;;12.20;9.10;;;14.90;93.50;;;;;;5029247;28;20032;-66
2021/09/09 04:33:14;;;;;;;13.32;9.60;;;14.80;93.40;;;;;;5023411;28;20044;-67
2021/09/09 04:35:40;;;;;;;11.45;8.35;;;14.80;93.40;;;;;;5027858;28;20025;-65
2021/09/09 04:38:05;;;;;;;12.05;9.20;;;14.80;93.50;;;;;;5028760;28;20025;-64
2021/09/09 04:40:31;;;;;;;13.00;8.63;;;14.80;93.50;;;;;;5027695;28;20048;-65
2021/09/09 04:42:57;;;;;;;12.10;8.77;;;14.80;93.60;;;;;;5024575;28;20025;-65
2021/09/09 04:45:22;;;;;;;13.13;9.00;;;14.80;93.50;;;;;;5030206;28;20060;-65
2021/09/09 04:47:48;;;;;;;14.30;9.45;;;14.80;93.50;;;;;;5030650;28;20032;-65
2021/09/09 04:50:13;;;;;;;11.23;8.73;;;14.80;93.50;;;;;;5011912;28;20108;-65
2021/09/09 04:52:39;;;;;;;13.63;8.88;;;14.80;93.60;;;;;;5028827;28;20179;-64
2021/09/09 04:55:05;;;;;;;13.65;8.38;;;14.80;93.50;;;;;;5012339;28;20026;-65
2021/09/09 04:57:31;;;;;;;11.63;8.43;;;14.80;93.60;;;;;;5028606;28;20030;-65
2021/09/09 04:59:56;;;;;;;13.07;8.13;;;14.80;93.60;;;;;;5019784;28;20932;-64
2021/09/09 05:02:22;;;;;;;12.70;8.77;;;14.70;93.50;;;;;;5029939;28;20053;-65
2021/09/09 05:04:47;;;;;;;11.40;8.70;;;14.70;93.50;;;;;;5018664;28;20443;-68
2021/09/09 05:07:13;;;;;;;13.25;9.32;;;14.70;93.50;;;;;;5025910;28;20026;-65
2021/09/09 05:09:39;;;;;;;13.98;8.40;;;14.70;93.50;;;;;;5029400;28;20109;-65
2021/09/09 05:12:04;;;;;;;13.40;8.57;;;14.70;93.50;;;;;;5030107;28;20099;-65
2021/09/09 05:14:30;;;;;;;13.40;8.80;;;14.70;93.50;;;;;;5020480;28;20086;-65
2021/09/09 05:16:55;;;;;;;11.40;8.70;;;14.70;93.60;;;;;;5029879;28;20040;-66
2021/09/09 05:19:21;;;;;;;11.65;8.52;;;14.70;93.60;;;;;;5031942;28;20410;-66
2021/09/09 05:21:47;;;;;;;13.70;8.77;;;14.70;93.60;;;;;;5032308;28;20040;-66
2021/09/09 05:24:12;;;;;;;11.40;8.38;;;14.70;93.60;;;;;;5032080;28;20036;-66
2021/09/09 05:26:38;;;;;;;12.88;8.73;;;14.70;93.50;;;;;;5027759;28;20394;-67
2021/09/09 05:29:03;;;;;;;11.85;8.45;;;14.70;93.60;;;;;;5029778;28;20028;-66
2021/09/09 05:31:29;;;;;;;14.05;9.63;;;14.80;93.90;;;;;;5031072;28;20025;-66
2021/09/09 05:33:55;;;;;;;13.75;9.43;;;14.80;93.70;;;;;;5031782;28;20489;-65
2021/09/09 05:36:20;;;;;;;13.18;8.98;;;14.80;93.70;;;;;;5030227;28;20056;-68
2021/09/09 05:38:46;;;;;;;17.00;9.73;;;14.80;93.70;;;;;;5033382;28;20037;-65
2021/09/09 05:41:11;;;;;;;12.98;9.55;;;14.80;93.70;;;;;;5033102;28;20482;-65
2021/09/09 05:43:37;;;;;;;15.77;9.90;;;14.80;93.90;;;;;;5029100;28;20431;-65
2021/09/09 05:46:02;;;;;;;13.93;9.23;;;14.90;93.70;;;;;;5012757;28;20117;-65
2021/09/09 05:48:28;;;;;;;13.55;9.52;;;14.80;93.70;;;;;;5013705;28;20032;-65
2021/09/09 05:50:54;;;;;;;12.82;9.50;;;14.90;93.80;;;;;;4995461;28;20072;-65
2021/09/09 05:53:19;;;;;;;15.75;9.27;;;14.90;93.90;;;;;;5012835;28;20084;-65
2021/09/09 05:55:45;;;;;;;11.25;9.15;;;14.90;93.90;;;;;;5013586;28;20057;-65
2021/09/09 05:58:10;;;;;;;15.20;10.30;;;15.00;93.90;;;;;;5023828;28;20033;-65
2021/09/09 06:00:36;;;;;;;13.52;9.25;;;15.00;93.90;;;;;;5032593;28;20065;-65
2021/09/09 06:03:02;;;;;;;10.88;8.52;;;15.10;94.00;;;;;;5032052;28;20021;-65
2021/09/09 06:05:28;;;;;;;13.38;9.52;;;15.10;94.00;;;;;;5032939;28;20095;-65
2021/09/09 06:07:54;;;;;;;15.43;9.85;;;15.20;94.00;;;;;;5032848;28;20096;-65
2021/09/09 06:10:20;;;;;;;11.38;9.52;;;15.30;94.00;;;;;;5033068;28;20108;-65
2021/09/09 06:12:45;;;;;;;12.65;9.57;;;15.30;94.00;;;;;;5030787;28;20029;-65
2021/09/09 06:15:11;;;;;;;11.35;8.77;;;15.40;94.00;;;;;;5016621;28;20026;-65
2021/09/09 06:17:37;;;;;;;13.75;9.75;;;15.40;94.00;;;;;;5013089;28;20117;-65
2021/09/09 06:20:04;;;;;;;12.32;9.13;;;15.50;94.10;;;;;;5012560;28;20026;-66
2021/09/09 06:22:30;;;;;;;16.13;10.40;;;15.60;94.10;;;;;;5032821;28;20028;-66
2021/09/09 06:24:55;;;;;;;15.80;10.70;;;15.60;94.00;;;;;;5031861;28;20026;-65
2021/09/09 06:27:21;;;;;;;12.68;10.13;;;15.70;93.90;;;;;;5027578;28;20446;-66
2021/09/09 06:29:46;;;;;;;15.23;9.93;;;15.70;93.80;;;;;;5019098;28;20100;-65
2021/09/09 06:32:12;;;;;;;15.43;10.75;;;15.80;93.80;;;;;;5012581;28;20037;-66
2021/09/09 06:34:37;;;;;;;14.95;10.68;;;15.80;93.90;;;;;;5011076;28;20030;-65
2021/09/09 06:37:03;;;;;;;14.18;10.00;;;15.90;93.90;;;;;;5012722;28;20156;-65
2021/09/09 06:39:29;;;;;;;15.38;10.50;;;15.90;93.90;;;;;;5012835;28;20113;-65
2021/09/09 06:41:54;;;;;;;15.38;10.80;;;16.00;93.90;;;;;;5017841;28;20064;-65
2021/09/09 06:44:20;;;;;;;14.52;10.07;;;16.00;93.90;;;;;;5022036;28;20347;-66
2021/09/09 06:46:46;;;;;;;14.25;10.25;;;16.10;93.90;;;;;;5012070;28;20455;-65
2021/09/09 06:49:11;;;;;;;13.10;9.55;;;16.10;93.90;;;;;;5012627;28;20080;-65
2021/09/09 06:51:38;;;;;;;15.60;10.35;;;16.20;94.00;;;;;;5012238;28;20022;-66
2021/09/09 06:54:04;;;;;;;12.00;8.95;;;16.30;93.90;;;;;;4994060;28;20478;-66
2021/09/09 06:56:30;;;;;;;13.90;10.07;;;16.30;93.90;;;;;;5016620;28;20037;-65
2021/09/09 06:58:55;;;;;;;15.32;10.63;;;16.40;94.00;;;;;;5013845;28;20041;-65
2021/09/09 07:01:21;;;;;;;11.20;9.45;;;16.40;94.00;;;;;;5031969;28;20029;-66
2021/09/09 07:03:47;;;;;;;14.38;10.15;;;16.50;94.00;;;;;;5030816;28;20029;-66
2021/09/09 07:06:14;;;;;;;12.75;9.60;;;16.60;94.00;;;;;;5031764;28;20040;-66
2021/09/09 07:08:40;;;;;;;15.75;9.85;;;16.60;94.00;;;;;;5031524;28;20021;-66
2021/09/09 07:11:06;;;;;;;15.07;9.43;;;16.70;94.00;;;;;;5031365;28;20111;-66
2021/09/09 07:13:32;;;;;;;15.65;9.68;;;16.80;94.00;;;;;;5027777;28;20095;-66
2021/09/09 07:15:58;;;;;;;12.48;9.35;;;16.90;94.00;;;;;;5011477;28;20022;-66
2021/09/09 07:18:28;;;;;;;13.32;9.88;;;17.10;93.90;;;;;;4993998;28;20022;-66
2021/09/09 07:20:54;;;;;;;10.38;9.02;;;17.20;93.90;;;;;;5011571;28;20445;-66
2021/09/09 07:23:20;;;;;;;13.25;9.50;;;17.40;93.90;;;;;;4993683;28;20108;-67
2021/09/09 07:25:46;;;;;;;13.07;9.48;;;17.80;93.70;;;;;;5014495;28;20025;-67
2021/09/09 07:28:12;;;;;;;12.40;8.15;;;18.40;93.30;;;;;;5021456;28;20113;-66
2021/09/09 07:30:38;;;;;;;11.98;7.80;;;19.10;92.80;;;;;;5030939;28;20021;-66
2021/09/09 07:33:04;;;;;;;10.32;7.38;;;19.50;92.40;;;;;;5030380;28;20393;-66
2021/09/09 07:35:31;;;;;;;9.77;6.93;;;19.70;92.10;;;;;;5031066;28;20029;-66
2021/09/09 07:37:56;;;;;;;8.73;6.85;;;19.90;91.90;;;;;;5031340;28;20041;-66
2021/09/09 07:40:22;;;;;;;12.00;7.60;;;20.10;91.70;;;;;;5030897;28;20378;-66
2021/09/09 07:42:48;;;;;;;10.40;6.95;;;20.60;91.50;;;;;;5030008;28;20025;-66
2021/09/09 07:45:13;;;;;;;13.38;7.57;;;21.30;90.80;;;;;;5014315;28;20033;-66
2021/09/09 07:47:40;;;;;;;11.15;6.30;;;22.10;90.10;;;;;;5011175;28;20547;-66
2021/09/09 07:50:07;;;;;;;7.38;6.22;;;22.60;88.50;;;;;;5011443;28;20105;-66
2021/09/09 07:52:33;;;;;;;7.75;5.75;;;23.20;87.20;;;;;;5010962;28;20478;-67
2021/09/09 07:54:58;;;;;;;8.45;6.38;;;23.70;85.70;;;;;;5011034;28;20569;-66
2021/09/09 07:57:24;;;;;;;11.90;6.10;;;24.20;84.30;;;;;;5030676;28;20065;-67
2021/09/09 07:59:49;;;;;;;9.52;6.30;;;24.60;83.00;;;;;;5032177;28;20030;-66
2021/09/09 08:02:16;;;;;;;6.93;5.75;;;25.00;81.70;;;;;;5031652;28;20021;-65
2021/09/09 08:04:42;;;;;;;12.27;6.28;;;25.30;80.90;;;;;;5029829;28;20029;-65
2021/09/09 08:07:07;;;;;;;7.32;5.97;;;25.60;79.90;;;;;;5030713;28;20025;-65
2021/09/09 08:09:33;;;;;;;11.50;5.82;;;25.90;79.00;;;;;;5030540;28;20406;-65
2021/09/09 08:11:59;;;;;;;10.52;6.07;;;26.10;77.90;;;;;;5073579;22;20396;-66
2021/09/09 08:14:24;;;;;;;7.47;5.13;;;26.30;77.00;;;;;;5029553;28;20097;-67
2021/09/09 08:16:50;;;;;;;8.35;5.20;;;26.50;76.70;;;;;;5030655;28;20087;-67
2021/09/09 08:19:15;;;;;;;7.55;5.55;;;26.60;75.60;;;;;;5030627;28;20076;-67
2021/09/09 08:21:41;;;;;;;8.05;5.20;;;26.70;75.10;;;;;;5030762;28;20033;-66
2021/09/09 08:24:07;;;;;;;6.82;5.80;;;26.70;75.10;;;;;;5030038;28;20049;-67
2021/09/09 08:26:33;;;;;;;9.63;6.00;;;26.60;74.80;;;;;;5029542;28;20029;-67
2021/09/09 08:28:58;;;;;;;7.95;5.75;;;26.60;75.10;;;;;;4993624;28;20022;-67
2021/09/09 08:31:24;;;;;;;5.40;4.90;;;26.50;74.90;;;;;;5010537;28;20029;-67
2021/09/09 08:33:50;;;;;;;8.85;7.85;;;26.40;75.80;;;;;;5009836;28;20036;-67
2021/09/09 08:36:18;;;;;;;8.50;5.65;;;26.40;76.20;;;;;;5010212;28;20056;-67
2021/09/09 08:38:44;;;;;;;11.88;5.85;;;26.30;76.20;;;;;;5010624;28;20021;-68
2021/09/09 08:41:09;;;;;;;7.88;5.53;;;26.20;75.80;;;;;;4997625;28;20573;-68
2021/09/09 08:43:35;;;;;;;6.43;5.40;;;26.10;76.60;;;;;;5009851;28;20018;-68
2021/09/09 08:46:02;;;;;;;5.38;4.82;;;26.10;76.10;;;;;;5010752;28;20030;-68
2021/09/09 08:48:28;;;;;;;7.53;5.57;;;26.10;76.50;;;;;;5010467;28;20026;-69
2021/09/09 08:50:54;;;;;;;12.95;5.05;;;26.10;76.30;;;;;;5010495;28;20104;-69
2021/09/09 08:53:21;;;;;;;7.88;5.22;;;26.00;76.70;;;;;;4992426;28;20605;-69
2021/09/09 08:55:49;;;;;;;7.45;5.13;;;26.00;76.00;;;;;;5014733;28;20482;-69
2021/09/09 08:58:14;;;;;;;7.03;5.22;;;26.00;76.20;;;;;;4996873;28;20422;-69
2021/09/09 09:01:26;;;;;;;10.13;5.95;;;26.00;76.10;;;;;;5014944;28;20116;-69
2021/09/09 09:03:54;;;;;;;11.27;5.45;;;26.00;75.50;;;;;;5010422;28;20455;-69
2021/09/09 09:06:26;;;;;;;7.70;4.95;;;25.90;75.90;;;;;;4996620;28;20025;-69
2021/09/09 09:08:57;;;;;;;6.70;4.80;;;25.80;76.00;;;;;;4996195;28;20029;-69
2021/09/09 09:11:25;;;;;;;8.68;5.15;;;25.80;75.60;;;;;;5032614;28;20034;-69
2021/09/09 09:13:51;;;;;;;6.80;4.72;;;25.70;75.10;;;;;;5025772;28;20048;-69
2021/09/09 09:16:19;;;;;;;6.93;4.00;;;25.70;75.00;;;;;;5033755;28;20414;-69
2021/09/09 09:18:46;;;;;;;5.60;4.40;;;25.60;74.90;;;;;;5034062;28;20398;-69
2021/09/09 09:21:13;;;;;;;5.43;4.15;;;25.60;74.30;;;;;;5033483;28;20037;-69
2021/09/09 09:23:48;;;;;;;8.40;4.45;;;25.50;74.30;;;;;;5033033;28;20052;-69
2021/09/09 09:26:13;;;;;;;10.32;4.70;;;25.50;73.70;;;;;;5013991;28;20068;-69
2021/09/09 09:28:43;;;;;;;6.63;4.55;;;25.40;73.80;;;;;;5024714;28;20393;-69
2021/09/09 09:31:12;;;;;;;11.00;5.10;;;25.20;74.00;;;;;;5033302;28;20035;-69
2021/09/09 09:33:43;;;;;;;6.40;4.32;;;25.10;73.70;;;;;;5033074;28;20105;-68
2021/09/09 09:36:24;;;;;;;5.93;4.20;;;25.00;73.80;;;;;;5033387;28;20029;-69
2021/09/09 09:38:51;;;;;;;7.00;4.18;;;24.90;73.30;;;;;;5033548;28;20025;-69
2021/09/09 09:41:20;;;;;;;7.63;4.25;;;24.90;73.60;;;;;;5032936;28;20064;-69
2021/09/09 09:43:54;;;;;;;5.20;4.25;;;24.90;73.70;;;;;;5019676;28;20022;-69
2021/09/09 09:46:28;;;;;;;7.18;4.13;;;25.00;73.80;;;;;;5013523;28;20018;-69
2021/09/09 09:48:54;;;;;;;5.70;4.20;;;25.00;74.10;;;;;;5013281;28;20095;-69
2021/09/09 09:51:39;;;;;;;7.18;4.50;;;25.00;74.00;;;;;;5013529;28;20421;-69
2021/09/09 09:54:10;;;;;;;10.88;4.18;;;25.10;73.50;;;;;;5012541;28;20386;-69
2021/09/09 09:56:36;;;;;;;6.85;4.45;;;25.10;74.00;;;;;;5020525;28;20116;-69
2021/09/09 09:59:03;;;;;;;5.65;3.90;;;25.10;74.60;;;;;;5032678;28;20040;-68
2021/09/09 10:01:30;;;;;;;5.00;4.47;;;25.20;74.40;;;;;;5021872;28;20095;-69
2021/09/09 10:04:00;;;;;;;9.20;4.68;;;25.30;73.90;;;;;;5012161;28;20508;-69
2021/09/09 10:06:26;;;;;;;8.43;4.45;;;25.40;73.70;;;;;;5012116;28;20229;-69
2021/09/09 10:08:52;;;;;;;8.40;4.53;;;25.50;73.20;;;;;;5013156;28;20080;-68
2021/09/09 10:11:18;;;;;;;8.63;4.40;;;25.50;72.50;;;;;;5018432;28;20032;-69
2021/09/09 10:13:44;;;;;;;8.38;4.10;;;25.50;72.90;;;;;;5012177;28;20022;-69
2021/09/09 10:16:11;;;;;;;5.05;4.55;;;25.50;72.90;;;;;;5013341;28;20066;-69
2021/09/09 10:18:37;;;;;;;10.27;5.00;;;25.60;73.20;;;;;;5013197;28;20056;-69
2021/09/09 10:21:03;;;;;;;5.55;4.82;;;25.60;73.50;;;;;;5012842;28;20536;-69
2021/09/09 10:23:29;;;;;;;5.70;4.65;;;25.70;72.50;;;;;;5012318;28;20034;-69
2021/09/09 10:25:58;;;;;;;4.85;4.32;;;25.70;72.00;;;;;;5012896;28;20029;-69
2021/09/09 10:31:13;;;;;;;11.82;4.80;;;25.90;73.00;;;;;;5032626;28;20493;-69
2021/09/09 10:33:44;;;;;;;5.18;4.30;;;26.00;71.90;;;;;;5031698;28;20034;-69
2021/09/09 10:36:39;;;;;;;7.63;4.13;;;26.10;71.60;;;;;;5032301;28;20027;-70
2021/09/09 10:39:26;;;;;;;6.50;3.72;;;26.10;71.60;;;;;;5032225;28;20036;-69
2021/09/09 10:41:52;;;;;;;6.55;4.55;;;26.30;71.70;;;;;;4991429;28;20046;-70
2021/09/09 10:44:17;;;;;;;7.40;4.30;;;26.30;71.50;;;;;;5022366;28;20030;-69
2021/09/09 10:46:45;;;;;;;9.48;4.15;;;26.30;71.70;;;;;;5012103;28;20030;-70
2021/09/09 10:49:20;;;;;;;7.05;4.60;;;26.40;71.40;;;;;;5021656;28;20021;-68
2021/09/09 10:52:08;;;;;;;5.93;4.20;;;26.50;70.20;;;;;;5001368;28;20138;-68
2021/09/09 10:55:13;;;;;;;6.25;4.30;;;26.40;70.20;;;;;;5010746;28;20375;-69
2021/09/09 10:57:39;;;;;;;7.07;4.05;;;26.40;69.90;;;;;;5020805;28;20029;-69
2021/09/09 11:00:06;;;;;;;7.38;4.15;;;26.50;71.30;;;;;;5003300;28;20435;-70
2021/09/09 11:02:33;;;;;;;7.70;4.32;;;26.50;70.70;;;;;;5012005;28;20096;-72
2021/09/09 11:05:05;;;;;;;8.07;4.10;;;26.50;70.80;;;;;;5011554;28;20022;-69
2021/09/09 11:07:32;;;;;;;9.18;3.65;;;26.60;70.50;;;;;;5012019;28;20064;-69
2021/09/09 11:10:09;;;;;;;6.30;4.00;;;26.80;70.50;;;;;;4994083;28;20546;-70
2021/09/09 11:12:40;;;;;;;8.23;3.88;;;26.80;70.10;;;;;;5016536;28;20033;-70
2021/09/09 11:15:11;;;;;;;4.63;4.05;;;26.90;70.10;;;;;;5011664;28;20502;-69
2021/09/09 11:17:37;;;;;;;6.70;3.97;;;27.10;70.70;;;;;;5011705;28;20029;-69
2021/09/09 11:20:15;;;;;;;7.25;4.07;;;27.30;71.30;;;;;;5011671;28;20030;-69
2021/09/09 11:22:40;;;;;;;6.82;4.03;;;27.30;70.60;;;;;;5011139;28;20026;-70
2021/09/09 11:25:24;;;;;;;9.60;3.95;;;27.30;69.50;;;;;;5011812;28;20018;-70
2021/09/09 11:27:50;;;;;;;6.07;3.92;;;27.20;69.50;;;;;;5015190;28;20374;-70
2021/09/09 11:30:17;;;;;;;4.40;3.40;;;27.10;70.20;;;;;;5011571;28;20030;-69
2021/09/09 11:33:03;;;;;;;6.82;4.93;;;26.90;70.50;;;;;;5010527;28;20022;-69
2021/09/09 11:35:29;;;;;;;5.97;4.57;;;26.80;70.10;;;;;;5011287;28;20022;-70
2021/09/09 11:37:55;;;;;;;5.35;3.95;;;26.70;71.30;;;;;;5011367;28;20191;-70
2021/09/09 11:40:21;;;;;;;4.68;3.90;;;26.70;71.50;;;;;;5011487;28;20466;-69
2021/09/09 11:42:47;;;;;;;5.47;3.88;;;26.70;71.50;;;;;;5023096;28;20097;-69
2021/09/09 11:45:13;;;;;;;6.15;4.00;;;26.70;70.80;;;;;;4993700;28;20386;-70
2021/09/09 11:47:41;;;;;;;6.18;3.88;;;26.70;70.50;;;;;;5011411;28;20032;-69
2021/09/09 11:50:07;;;;;;;4.95;3.72;;;26.80;70.50;;;;;;5011233;28;20076;-71
2021/09/09 11:52:34;;;;;;;8.48;4.13;;;26.90;70.40;;;;;;5010820;28;20018;-71
2021/09/09 11:55:09;;;;;;;4.30;3.90;;;27.10;70.40;;;;;;5011203;28;20559;-69
2021/09/09 11:57:44;;;;;;;5.50;4.72;;;27.20;70.20;;;;;;5027306;28;20036;-70
2021/09/09 12:00:13;;;;;;;7.30;3.97;;;27.30;69.50;;;;;;5013053;28;20068;-70
2021/09/09 12:02:42;;;;;;;4.82;4.13;;;27.30;69.10;;;;;;5030128;28;20517;-69
2021/09/09 12:05:08;;;;;;;7.55;4.55;;;27.20;68.90;;;;;;5030676;28;20040;-68
2021/09/09 12:07:35;;;;;;;4.28;3.88;;;27.10;68.90;;;;;;5013252;28;20017;-69
2021/09/09 12:10:06;;;;;;;9.35;4.70;;;27.00;69.30;;;;;;5030627;28;20018;-70
2021/09/09 12:12:34;;;;;;;4.97;4.07;;;26.90;69.50;;;;;;5018767;28;20167;-69
2021/09/09 12:15:10;;;;;;;8.40;4.45;;;26.80;70.40;;;;;;5007444;28;20529;-69
2021/09/09 12:17:38;;;;;;;5.15;3.95;;;26.70;69.10;;;;;;5030707;28;20433;-69
2021/09/09 12:20:05;;;;;;;8.23;4.80;;;26.60;69.50;;;;;;5030569;28;20025;-69
2021/09/09 12:22:52;;;;;;;6.72;4.07;;;26.60;69.70;;;;;;5030130;28;20726;-72
2021/09/09 12:25:27;;;;;;;8.43;4.20;;;26.70;69.90;;;;;;5029041;28;20025;-69
2021/09/09 12:28:08;;;;;;;4.32;3.92;;;26.70;70.10;;;;;;5013421;28;20014;-71
2021/09/09 12:30:36;;;;;;;21.77;17.05;;;26.80;70.60;;;;;;4993103;28;20026;-69
2021/09/09 12:33:14;;;;;;;8.35;4.60;;;26.90;70.60;;;;;;4992222;28;20034;-70
2021/09/09 12:35:39;;;;;;;9.43;4.13;;;27.00;69.80;;;;;;4993227;28;20076;-71
2021/09/09 12:38:09;;;;;;;7.13;4.32;;;27.10;69.90;;;;;;4993024;28;20024;-69
2021/09/09 12:40:53;;;;;;;5.85;4.07;;;27.20;69.30;;;;;;5009435;28;20550;-69
2021/09/09 12:43:24;;;;;;;5.75;4.05;;;27.30;69.40;;;;;;5026153;28;20025;-68